LTBA Airport Information

Runway Information
Runway 05 Length 8530 ft width 197 ft
Elevation 93 ft Threshold 492 ft Heading 59
Runway 23 Length 8530 ft Width 197 ft
Elevation 90 ft Threshold 0 ft Heading 239
Runway 17L Length 9843 ft width 148 ft
Elevation 157 ft Threshold 0 ft Heading 178
Runway 35R Length 9843 ft Width 148 ft
Elevation 100 ft Threshold 0 ft Heading 358
Runway 17R Length 9843 ft width 148 ft
Elevation 163 ft Threshold 0 ft Heading 178
Runway 35L Length 9843 ft Width 148 ft
Elevation 102 ft Threshold 0 ft Heading 358
Airport Frequencies
Type APP Name YESILKOY A Frequency 120.5 MHZ
Type ATIS Name ATIS Frequency 128.2 MHZ
Type CLD Name YESILKOY D Frequency 121.7 MHZ
Type GND Name YESILKOY G Frequency 121.8 MHZ
Type RMP Name YESILKOY R Frequency 121.9 MHZ
Type TWR Name YESILKOY T Frequency 118.1 MHZ
Airport Navaids
Type VORTAC Name Istanbul Frequency 112500 KHZ
Airport Weather Information & NOTAM
ADDS - METARS form results

(0142 UTC 30 March 2020)
Data provider http://aviationweather.gov/metar/data/
 
METAR text: LTBA 300120Z 22012KT CAVOK 10/08 Q1011 NOSIG RMK RWY17L 23014KT RWY05 24012KT RWY23 23012KT
Conditions at: LTBA (ISTANBUL/ATATURK, TR) observed 0120 UTC 30 March 2020
Temperature: 10.0°C (50°F)
Dewpoint: 8.0°C (46°F) [RH = 87%]
Pressure (altimeter): 29.85 inches Hg (1011.0 mb)
Winds: from the SW (220 degrees) at 14 MPH (12 knots; 6.2 m/s)
Visibility: 6 or more miles (10+ km)
Ceiling: ceiling and visibility are OK
Clouds: unknown
Weather: no significant weather observed at this time

METAR text: LTBA 300050Z 22013KT CAVOK 10/08 Q1011 NOSIG RMK RWY17L 22013KT RWY05 23013KT RWY23 23012KT
Conditions at: LTBA (ISTANBUL/ATATURK, TR) observed 0050 UTC 30 March 2020
Temperature: 10.0°C (50°F)
Dewpoint: 8.0°C (46°F) [RH = 87%]
Pressure (altimeter): 29.85 inches Hg (1011.0 mb)
Winds: from the SW (220 degrees) at 15 MPH (13 knots; 6.7 m/s)
Visibility: 6 or more miles (10+ km)
Ceiling: ceiling and visibility are OK
Clouds: unknown
Weather: no significant weather observed at this time

Forecast for: LTBA (ISTANBUL/ATATURK, TR)
Text: TAF LTBA 292240Z 3000/3106 VRB02KT CAVOK
Forecast period: 0000 UTC 30 March 2020 to 0600 UTC 31 March 2020
Forecast type: FROM: standard forecast or significant change
Winds: variable direction winds at 2 MPH (2 knots; 1.0 m/s)
Visibility: 6 or more miles 10+ km)
Ceiling: unknown
Clouds: missing
Weather: NSW  (no significant weather)
Text: TEMPO 3010/3012 24016KT
Forecast period: 1000 to 1200 UTC 30 March 2020
Forecast type: TEMPORARY: The following changes expected for less than half the time period
Winds: from the WSW (240 degrees) at 18 MPH (16 knots; 8.2 m/s)
Visibility: missing
Ceiling: unknown
Clouds: missing
Weather: no significant weather forecast for this period